sensor_id;sensor_type;location;lat;lon;timestamp;pressure;altitude;pressure_sealevel;temperature;humidity
15489;BME280;7846;48.830;9.116;2023-03-15T00:01:59;97456.78;;;5.06;77.73
15489;BME280;7846;48.830;9.116;2023-03-15T00:04:24;97465.47;;;5.26;77.17
15489;BME280;7846;48.830;9.116;2023-03-15T00:06:53;97470.69;;;5.26;76.70
15489;BME280;7846;48.830;9.116;2023-03-15T00:09:19;97471.69;;;5.35;77.06
15489;BME280;7846;48.830;9.116;2023-03-15T00:11:47;97472.31;;;5.18;77.46
15489;BME280;7846;48.830;9.116;2023-03-15T00:14:13;97484.06;;;5.43;76.49
15489;BME280;7846;48.830;9.116;2023-03-15T00:16:38;97498.16;;;5.21;76.20
15489;BME280;7846;48.830;9.116;2023-03-15T00:19:05;97503.13;;;5.24;76.55
15489;BME280;7846;48.830;9.116;2023-03-15T00:21:32;97512.34;;;5.38;76.54
15489;BME280;7846;48.830;9.116;2023-03-15T00:23:58;97515.72;;;5.19;76.69
15489;BME280;7846;48.830;9.116;2023-03-15T00:26:24;97519.78;;;5.12;76.96
15489;BME280;7846;48.830;9.116;2023-03-15T00:28:49;97530.19;;;5.32;76.12
15489;BME280;7846;48.830;9.116;2023-03-15T00:31:24;97523.63;;;5.38;76.56
15489;BME280;7846;48.830;9.116;2023-03-15T00:33:50;97529.69;;;5.48;75.18
15489;BME280;7846;48.830;9.116;2023-03-15T00:36:18;97528.75;;;5.49;75.80
15489;BME280;7846;48.830;9.116;2023-03-15T00:38:48;97531.25;;;5.61;75.21
15489;BME280;7846;48.830;9.116;2023-03-15T00:41:15;97537.03;;;5.64;74.72
15489;BME280;7846;48.830;9.116;2023-03-15T00:43:41;97538.00;;;5.73;73.97
15489;BME280;7846;48.830;9.116;2023-03-15T00:46:07;97533.41;;;5.55;75.04
15489;BME280;7846;48.830;9.116;2023-03-15T00:48:34;97548.06;;;5.77;73.98
15489;BME280;7846;48.830;9.116;2023-03-15T00:53:31;97552.41;;;5.57;74.70
15489;BME280;7846;48.830;9.116;2023-03-15T00:55:57;97556.81;;;5.57;74.78
15489;BME280;7846;48.830;9.116;2023-03-15T00:58:23;97564.66;;;5.67;73.57
15489;BME280;7846;48.830;9.116;2023-03-15T01:00:49;97565.00;;;5.52;73.27
15489;BME280;7846;48.830;9.116;2023-03-15T01:03:16;97580.09;;;5.39;74.49
15489;BME280;7846;48.830;9.116;2023-03-15T01:05:41;97572.56;;;5.46;73.88
15489;BME280;7846;48.830;9.116;2023-03-15T01:08:07;97580.16;;;5.28;74.30
15489;BME280;7846;48.830;9.116;2023-03-15T01:10:35;97587.81;;;5.20;74.61
15489;BME280;7846;48.830;9.116;2023-03-15T01:13:01;97576.81;;;4.95;75.13
15489;BME280;7846;48.830;9.116;2023-03-15T01:15:26;97579.78;;;5.12;74.33
15489;BME280;7846;48.830;9.116;2023-03-15T01:17:51;97581.06;;;4.96;73.69
15489;BME280;7846;48.830;9.116;2023-03-15T01:20:18;97587.97;;;4.97;74.96
15489;BME280;7846;48.830;9.116;2023-03-15T01:22:44;97589.38;;;5.01;74.29
15489;BME280;7846;48.830;9.116;2023-03-15T01:25:10;97590.88;;;5.04;74.06
15489;BME280;7846;48.830;9.116;2023-03-15T01:27:35;97588.91;;;4.96;73.69
15489;BME280;7846;48.830;9.116;2023-03-15T01:30:01;97589.28;;;4.92;73.61
15489;BME280;7846;48.830;9.116;2023-03-15T01:32:26;97594.13;;;4.96;73.19
15489;BME280;7846;48.830;9.116;2023-03-15T01:34:52;97589.47;;;5.00;73.17
15489;BME280;7846;48.830;9.116;2023-03-15T01:37:17;97589.22;;;5.03;73.19
15489;BME280;7846;48.830;9.116;2023-03-15T01:39:42;97590.81;;;4.94;73.29
15489;BME280;7846;48.830;9.116;2023-03-15T01:42:09;97595.97;;;4.84;73.99
15489;BME280;7846;48.830;9.116;2023-03-15T01:47:15;97597.81;;;4.73;74.08
15489;BME280;7846;48.830;9.116;2023-03-15T01:49:41;97605.72;;;4.82;74.12
15489;BME280;7846;48.830;9.116;2023-03-15T01:52:15;97612.97;;;4.79;74.36
15489;BME280;7846;48.830;9.116;2023-03-15T01:54:46;97617.66;;;4.64;74.75
15489;BME280;7846;48.830;9.116;2023-03-15T01:57:15;97612.44;;;4.64;74.54
15489;BME280;7846;48.830;9.116;2023-03-15T01:59:50;97616.00;;;4.84;73.78
15489;BME280;7846;48.830;9.116;2023-03-15T02:02:18;97617.84;;;4.72;73.37
15489;BME280;7846;48.830;9.116;2023-03-15T02:04:55;97627.88;;;4.77;73.00
15489;BME280;7846;48.830;9.116;2023-03-15T02:07:23;97624.53;;;4.86;72.94
15489;BME280;7846;48.830;9.116;2023-03-15T02:10:03;97622.69;;;4.77;72.40
15489;BME280;7846;48.830;9.116;2023-03-15T02:12:31;97628.59;;;4.79;71.69
15489;BME280;7846;48.830;9.116;2023-03-15T02:15:00;97626.00;;;4.79;72.26
15489;BME280;7846;48.830;9.116;2023-03-15T02:17:35;97626.81;;;4.79;72.08
15489;BME280;7846;48.830;9.116;2023-03-15T02:22:59;97630.31;;;4.69;72.45
15489;BME280;7846;48.830;9.116;2023-03-15T02:28:06;97631.25;;;4.68;71.35
15489;BME280;7846;48.830;9.116;2023-03-15T02:30:33;97636.66;;;4.76;71.10
15489;BME280;7846;48.830;9.116;2023-03-15T02:33:00;97641.16;;;4.74;71.20
15489;BME280;7846;48.830;9.116;2023-03-15T02:35:31;97648.34;;;4.60;70.88
15489;BME280;7846;48.830;9.116;2023-03-15T02:37:57;97652.16;;;4.56;71.42
15489;BME280;7846;48.830;9.116;2023-03-15T02:40:27;97661.38;;;4.60;71.03
15489;BME280;7846;48.830;9.116;2023-03-15T02:43:01;97661.53;;;4.48;71.37
15489;BME280;7846;48.830;9.116;2023-03-15T02:45:30;97667.06;;;4.54;70.82
15489;BME280;7846;48.830;9.116;2023-03-15T02:47:59;97678.19;;;4.68;70.30
15489;BME280;7846;48.830;9.116;2023-03-15T02:50:26;97665.59;;;4.73;70.20
15489;BME280;7846;48.830;9.116;2023-03-15T02:52:52;97673.31;;;4.63;70.14
15489;BME280;7846;48.830;9.116;2023-03-15T02:55:19;97676.94;;;4.83;69.29
15489;BME280;7846;48.830;9.116;2023-03-15T02:57:46;97690.38;;;4.67;69.53
15489;BME280;7846;48.830;9.116;2023-03-15T03:00:13;97696.66;;;4.65;69.51
15489;BME280;7846;48.830;9.116;2023-03-15T03:02:40;97698.50;;;4.53;70.29
15489;BME280;7846;48.830;9.116;2023-03-15T03:05:07;97703.09;;;4.60;69.55
15489;BME280;7846;48.830;9.116;2023-03-15T03:07:32;97709.09;;;4.72;68.26
15489;BME280;7846;48.830;9.116;2023-03-15T03:09:57;97708.34;;;4.81;68.54
15489;BME280;7846;48.830;9.116;2023-03-15T03:12:24;97723.19;;;4.70;68.60
15489;BME280;7846;48.830;9.116;2023-03-15T03:14:49;97723.91;;;4.72;68.32
15489;BME280;7846;48.830;9.116;2023-03-15T03:17:15;97724.84;;;4.71;68.08
15489;BME280;7846;48.830;9.116;2023-03-15T03:19:40;97724.59;;;4.74;67.84
15489;BME280;7846;48.830;9.116;2023-03-15T03:22:05;97733.47;;;4.82;67.42
15489;BME280;7846;48.830;9.116;2023-03-15T03:24:31;97735.72;;;4.87;67.22
15489;BME280;7846;48.830;9.116;2023-03-15T03:26:56;97744.06;;;4.58;67.88
15489;BME280;7846;48.830;9.116;2023-03-15T03:29:23;97747.38;;;4.72;68.41
15489;BME280;7846;48.830;9.116;2023-03-15T03:31:48;97747.72;;;4.78;68.28
15489;BME280;7846;48.830;9.116;2023-03-15T03:34:15;97759.44;;;4.73;68.05
15489;BME280;7846;48.830;9.116;2023-03-15T03:36:44;97761.31;;;4.82;68.30
15489;BME280;7846;48.830;9.116;2023-03-15T03:39:10;97760.75;;;4.67;68.24
15489;BME280;7846;48.830;9.116;2023-03-15T03:41:36;97760.75;;;4.67;68.16
15489;BME280;7846;48.830;9.116;2023-03-15T03:44:01;97765.59;;;4.83;67.48
15489;BME280;7846;48.830;9.116;2023-03-15T03:46:27;97772.94;;;4.78;67.55
15489;BME280;7846;48.830;9.116;2023-03-15T03:48:53;97774.09;;;4.85;67.24
15489;BME280;7846;48.830;9.116;2023-03-15T03:51:19;97779.50;;;4.61;68.04
15489;BME280;7846;48.830;9.116;2023-03-15T03:53:44;97781.97;;;4.63;68.00
15489;BME280;7846;48.830;9.116;2023-03-15T03:56:11;97786.13;;;4.54;67.71
15489;BME280;7846;48.830;9.116;2023-03-15T03:58:36;97783.97;;;4.70;67.38
15489;BME280;7846;48.830;9.116;2023-03-15T04:01:02;97786.75;;;4.35;67.84
15489;BME280;7846;48.830;9.116;2023-03-15T04:03:28;97794.91;;;4.53;68.04
15489;BME280;7846;48.830;9.116;2023-03-15T04:05:57;97795.38;;;4.47;68.72
15489;BME280;7846;48.830;9.116;2023-03-15T04:08:23;97799.06;;;4.44;68.12
15489;BME280;7846;48.830;9.116;2023-03-15T04:10:53;97816.84;;;4.39;68.17
15489;BME280;7846;48.830;9.116;2023-03-15T04:13:19;97816.47;;;4.55;68.33
15489;BME280;7846;48.830;9.116;2023-03-15T04:15:46;97816.47;;;4.44;68.36
15489;BME280;7846;48.830;9.116;2023-03-15T04:18:12;97819.91;;;4.33;68.11
15489;BME280;7846;48.830;9.116;2023-03-15T04:20:37;97814.34;;;4.38;68.45
15489;BME280;7846;48.830;9.116;2023-03-15T04:23:02;97822.50;;;4.44;68.19
15489;BME280;7846;48.830;9.116;2023-03-15T04:25:29;97824.16;;;4.68;67.29
15489;BME280;7846;48.830;9.116;2023-03-15T04:27:55;97829.00;;;4.83;66.76
15489;BME280;7846;48.830;9.116;2023-03-15T04:30:24;97830.53;;;4.86;66.70
15489;BME280;7846;48.830;9.116;2023-03-15T04:32:51;97838.81;;;4.91;66.34
15489;BME280;7846;48.830;9.116;2023-03-15T04:35:24;97836.38;;;4.78;66.85
15489;BME280;7846;48.830;9.116;2023-03-15T04:37:50;97831.03;;;4.46;66.52
15489;BME280;7846;48.830;9.116;2023-03-15T04:40:16;97830.91;;;4.59;66.73
15489;BME280;7846;48.830;9.116;2023-03-15T04:42:41;97834.13;;;4.51;66.93
15489;BME280;7846;48.830;9.116;2023-03-15T04:45:06;97837.66;;;4.73;66.60
15489;BME280;7846;48.830;9.116;2023-03-15T04:47:33;97840.28;;;4.39;66.58
15489;BME280;7846;48.830;9.116;2023-03-15T04:49:59;97838.88;;;4.35;66.72
15489;BME280;7846;48.830;9.116;2023-03-15T04:52:24;97844.66;;;4.39;66.57
15489;BME280;7846;48.830;9.116;2023-03-15T04:54:51;97844.66;;;4.50;66.85
15489;BME280;7846;48.830;9.116;2023-03-15T04:57:16;97843.13;;;4.36;67.25
15489;BME280;7846;48.830;9.116;2023-03-15T04:59:41;97837.09;;;4.47;66.05
15489;BME280;7846;48.830;9.116;2023-03-15T05:02:07;97846.09;;;4.43;66.22
15489;BME280;7846;48.830;9.116;2023-03-15T05:04:32;97837.53;;;4.41;66.19
15489;BME280;7846;48.830;9.116;2023-03-15T05:06:58;97839.47;;;4.50;66.39
15489;BME280;7846;48.830;9.116;2023-03-15T05:09:23;97831.25;;;4.21;66.21
15489;BME280;7846;48.830;9.116;2023-03-15T05:11:48;97824.75;;;4.26;66.50
15489;BME280;7846;48.830;9.116;2023-03-15T05:14:14;97833.28;;;4.28;66.32
15489;BME280;7846;48.830;9.116;2023-03-15T05:16:39;97834.59;;;4.23;66.02
15489;BME280;7846;48.830;9.116;2023-03-15T05:19:05;97829.84;;;4.28;66.18
15489;BME280;7846;48.830;9.116;2023-03-15T05:21:30;97835.75;;;4.19;65.85
15489;BME280;7846;48.830;9.116;2023-03-15T05:23:56;97833.75;;;4.45;65.09
15489;BME280;7846;48.830;9.116;2023-03-15T05:26:22;97838.03;;;4.23;66.18
15489;BME280;7846;48.830;9.116;2023-03-15T05:28:48;97831.03;;;4.46;65.19
15489;BME280;7846;48.830;9.116;2023-03-15T05:31:14;97838.63;;;4.60;64.50
15489;BME280;7846;48.830;9.116;2023-03-15T05:33:39;97849.06;;;4.49;64.67
15489;BME280;7846;48.830;9.116;2023-03-15T05:36:12;97847.88;;;4.53;64.64
15489;BME280;7846;48.830;9.116;2023-03-15T05:38:40;97841.25;;;4.49;63.93
15489;BME280;7846;48.830;9.116;2023-03-15T05:41:07;97845.25;;;4.65;63.72
15489;BME280;7846;48.830;9.116;2023-03-15T05:43:33;97846.91;;;4.66;63.75
15489;BME280;7846;48.830;9.116;2023-03-15T05:45:58;97852.00;;;4.90;63.50
15489;BME280;7846;48.830;9.116;2023-03-15T05:48:23;97852.34;;;4.85;62.46
15489;BME280;7846;48.830;9.116;2023-03-15T05:50:49;97861.94;;;4.84;63.12
15489;BME280;7846;48.830;9.116;2023-03-15T05:53:15;97854.47;;;4.80;63.37
15489;BME280;7846;48.830;9.116;2023-03-15T05:55:40;97852.34;;;4.85;62.33
15489;BME280;7846;48.830;9.116;2023-03-15T05:58:06;97861.22;;;4.94;62.48
15489;BME280;7846;48.830;9.116;2023-03-15T06:00:31;97853.63;;;5.02;62.77
15489;BME280;7846;48.830;9.116;2023-03-15T06:02:57;97863.25;;;4.90;62.06
15489;BME280;7846;48.830;9.116;2023-03-15T06:05:22;97859.44;;;4.94;62.78
15489;BME280;7846;48.830;9.116;2023-03-15T06:07:48;97862.72;;;5.07;62.66
15489;BME280;7846;48.830;9.116;2023-03-15T06:10:14;97859.25;;;4.75;62.15
15489;BME280;7846;48.830;9.116;2023-03-15T06:12:39;97868.91;;;4.95;62.03
15489;BME280;7846;48.830;9.116;2023-03-15T06:15:05;97869.91;;;5.26;61.56
15489;BME280;7846;48.830;9.116;2023-03-15T06:17:31;97872.69;;;5.14;61.57
15489;BME280;7846;48.830;9.116;2023-03-15T06:19:56;97872.34;;;5.50;60.83
15489;BME280;7846;48.830;9.116;2023-03-15T06:22:24;97871.59;;;5.59;60.80
15489;BME280;7846;48.830;9.116;2023-03-15T06:24:50;97882.88;;;5.60;60.60
15489;BME280;7846;48.830;9.116;2023-03-15T06:27:15;97882.09;;;5.37;60.83
15489;BME280;7846;48.830;9.116;2023-03-15T06:29:44;97886.81;;;5.54;60.53
15489;BME280;7846;48.830;9.116;2023-03-15T06:32:10;97880.34;;;5.70;60.21
15489;BME280;7846;48.830;9.116;2023-03-15T06:34:35;97880.44;;;6.00;59.53
15489;BME280;7846;48.830;9.116;2023-03-15T06:37:01;97886.97;;;5.74;59.01
15489;BME280;7846;48.830;9.116;2023-03-15T06:39:26;97881.31;;;6.01;59.91
15489;BME280;7846;48.830;9.116;2023-03-15T06:41:51;97882.25;;;6.21;58.81
15489;BME280;7846;48.830;9.116;2023-03-15T06:44:23;97882.47;;;5.97;58.30
15489;BME280;7846;48.830;9.116;2023-03-15T06:46:49;97892.59;;;6.01;59.20
15489;BME280;7846;48.830;9.116;2023-03-15T06:49:14;97893.44;;;5.91;59.39
15489;BME280;7846;48.830;9.116;2023-03-15T06:51:40;97885.28;;;6.26;59.22
15489;BME280;7846;48.830;9.116;2023-03-15T06:54:06;97886.81;;;6.07;59.14
15489;BME280;7846;48.830;9.116;2023-03-15T06:56:32;97884.75;;;6.01;58.89
15489;BME280;7846;48.830;9.116;2023-03-15T06:59:01;97898.03;;;5.66;58.92
15489;BME280;7846;48.830;9.116;2023-03-15T07:01:26;97899.97;;;6.38;58.52
15489;BME280;7846;48.830;9.116;2023-03-15T07:03:52;97894.16;;;6.14;58.88
15489;BME280;7846;48.830;9.116;2023-03-15T07:06:17;97894.16;;;6.14;59.04
15489;BME280;7846;48.830;9.116;2023-03-15T07:08:42;97889.19;;;6.32;58.45
15489;BME280;7846;48.830;9.116;2023-03-15T07:11:09;97893.53;;;6.21;59.16
15489;BME280;7846;48.830;9.116;2023-03-15T07:13:35;97895.00;;;6.14;59.03
15489;BME280;7846;48.830;9.116;2023-03-15T07:16:00;97905.69;;;6.11;58.57
15489;BME280;7846;48.830;9.116;2023-03-15T07:18:26;97897.34;;;6.38;58.34
15489;BME280;7846;48.830;9.116;2023-03-15T07:20:56;97913.47;;;6.74;57.46
15489;BME280;7846;48.830;9.116;2023-03-15T07:23:22;97916.81;;;7.16;56.67
15489;BME280;7846;48.830;9.116;2023-03-15T07:25:47;97916.84;;;6.86;57.48
15489;BME280;7846;48.830;9.116;2023-03-15T07:28:13;97923.44;;;6.80;56.95
15489;BME280;7846;48.830;9.116;2023-03-15T07:30:38;97918.22;;;6.59;56.85
15489;BME280;7846;48.830;9.116;2023-03-15T07:33:05;97919.03;;;6.81;56.46
15489;BME280;7846;48.830;9.116;2023-03-15T07:35:30;97914.72;;;6.70;56.09
15489;BME280;7846;48.830;9.116;2023-03-15T07:37:55;97924.34;;;6.48;56.66
15489;BME280;7846;48.830;9.116;2023-03-15T07:40:21;97927.50;;;7.03;56.70
15489;BME280;7846;48.830;9.116;2023-03-15T07:42:46;97929.50;;;7.21;55.92
15489;BME280;7846;48.830;9.116;2023-03-15T07:45:11;97926.63;;;6.93;55.74
15489;BME280;7846;48.830;9.116;2023-03-15T07:47:37;97932.06;;;7.01;54.61
15489;BME280;7846;48.830;9.116;2023-03-15T07:50:04;97937.72;;;7.57;55.05
15489;BME280;7846;48.830;9.116;2023-03-15T07:52:29;97918.63;;;7.25;54.38
15489;BME280;7846;48.830;9.116;2023-03-15T07:54:55;97921.13;;;7.37;53.34
15489;BME280;7846;48.830;9.116;2023-03-15T07:57:21;97925.66;;;7.25;53.56
15489;BME280;7846;48.830;9.116;2023-03-15T07:59:47;97924.75;;;7.45;53.73
15489;BME280;7846;48.830;9.116;2023-03-15T08:02:13;97931.38;;;7.49;53.28
15489;BME280;7846;48.830;9.116;2023-03-15T08:04:39;97931.41;;;7.69;53.30
15489;BME280;7846;48.830;9.116;2023-03-15T08:07:04;97939.94;;;7.81;52.33
15489;BME280;7846;48.830;9.116;2023-03-15T08:09:30;97932.25;;;7.79;52.38
15489;BME280;7846;48.830;9.116;2023-03-15T08:11:58;97939.13;;;7.80;52.25
15489;BME280;7846;48.830;9.116;2023-03-15T08:14:25;97941.59;;;7.82;53.09
15489;BME280;7846;48.830;9.116;2023-03-15T08:16:50;97934.44;;;7.84;52.06
15489;BME280;7846;48.830;9.116;2023-03-15T08:19:16;97943.41;;;7.91;51.93
15489;BME280;7846;48.830;9.116;2023-03-15T08:21:41;97930.44;;;8.09;51.91
15489;BME280;7846;48.830;9.116;2023-03-15T08:24:10;97941.66;;;8.77;51.48
15489;BME280;7846;48.830;9.116;2023-03-15T08:26:36;97937.13;;;9.07;50.58
15489;BME280;7846;48.830;9.116;2023-03-15T08:29:01;97943.63;;;8.75;49.95
15489;BME280;7846;48.830;9.116;2023-03-15T08:31:28;97944.63;;;8.64;49.34
15489;BME280;7846;48.830;9.116;2023-03-15T08:33:53;97948.97;;;8.83;49.54
15489;BME280;7846;48.830;9.116;2023-03-15T08:36:19;97946.91;;;8.87;50.07
15489;BME280;7846;48.830;9.116;2023-03-15T08:38:44;97952.78;;;8.52;49.96
15489;BME280;7846;48.830;9.116;2023-03-15T08:41:10;97942.94;;;9.10;50.07
15489;BME280;7846;48.830;9.116;2023-03-15T08:43:36;97953.53;;;8.81;50.32
15489;BME280;7846;48.830;9.116;2023-03-15T08:46:01;97960.56;;;8.90;50.60
15489;BME280;7846;48.830;9.116;2023-03-15T08:48:27;97952.03;;;9.16;50.19
15489;BME280;7846;48.830;9.116;2023-03-15T08:50:53;97952.56;;;9.47;49.78
15489;BME280;7846;48.830;9.116;2023-03-15T08:53:19;97957.75;;;9.29;50.79
15489;BME280;7846;48.830;9.116;2023-03-15T08:55:46;97966.06;;;9.52;49.75
15489;BME280;7846;48.830;9.116;2023-03-15T08:58:12;97957.31;;;9.61;48.60
15489;BME280;7846;48.830;9.116;2023-03-15T09:00:38;97960.41;;;9.57;48.72
15489;BME280;7846;48.830;9.116;2023-03-15T09:03:04;97953.00;;;10.06;48.12
15489;BME280;7846;48.830;9.116;2023-03-15T09:05:29;97962.63;;;9.79;47.25
15489;BME280;7846;48.830;9.116;2023-03-15T09:07:55;97958.00;;;9.36;47.49
15489;BME280;7846;48.830;9.116;2023-03-15T09:10:20;97967.00;;;9.33;46.63
15489;BME280;7846;48.830;9.116;2023-03-15T09:12:50;97965.13;;;9.53;46.53
15489;BME280;7846;48.830;9.116;2023-03-15T09:15:17;97982.38;;;9.28;46.94
15489;BME280;7846;48.830;9.116;2023-03-15T09:17:43;97972.84;;;9.55;46.26
15489;BME280;7846;48.830;9.116;2023-03-15T09:20:10;97973.09;;;9.61;46.56
15489;BME280;7846;48.830;9.116;2023-03-15T09:22:48;97987.06;;;9.62;47.04
15489;BME280;7846;48.830;9.116;2023-03-15T09:25:14;97984.13;;;9.65;47.02
15489;BME280;7846;48.830;9.116;2023-03-15T09:27:39;97986.28;;;9.79;46.69
15489;BME280;7846;48.830;9.116;2023-03-15T09:30:07;97984.81;;;9.67;45.74
15489;BME280;7846;48.830;9.116;2023-03-15T09:32:33;97996.88;;;9.60;46.26
15489;BME280;7846;48.830;9.116;2023-03-15T09:35:04;97989.19;;;9.76;45.70
15489;BME280;7846;48.830;9.116;2023-03-15T09:37:30;97998.59;;;9.51;46.71
15489;BME280;7846;48.830;9.116;2023-03-15T09:39:55;97994.22;;;9.42;46.65
15489;BME280;7846;48.830;9.116;2023-03-15T09:42:52;97991.72;;;9.40;46.28
15489;BME280;7846;48.830;9.116;2023-03-15T09:45:50;97990.41;;;9.54;45.76
15489;BME280;7846;48.830;9.116;2023-03-15T09:48:39;97993.78;;;9.47;45.87
15489;BME280;7846;48.830;9.116;2023-03-15T09:51:15;97991.59;;;9.42;46.48
15489;BME280;7846;48.830;9.116;2023-03-15T09:53:50;97998.47;;;9.70;46.04
15489;BME280;7846;48.830;9.116;2023-03-15T09:56:24;97998.66;;;10.05;45.14
15489;BME280;7846;48.830;9.116;2023-03-15T09:58:54;98000.31;;;9.88;44.96
15489;BME280;7846;48.830;9.116;2023-03-15T10:01:33;98002.13;;;10.23;45.23
15489;BME280;7846;48.830;9.116;2023-03-15T10:04:30;97992.69;;;10.30;45.10
15489;BME280;7846;48.830;9.116;2023-03-15T10:07:01;97996.56;;;10.08;45.27
15489;BME280;7846;48.830;9.116;2023-03-15T10:09:29;97999.81;;;10.20;44.42
15489;BME280;7846;48.830;9.116;2023-03-15T10:12:15;97986.47;;;11.01;43.97
15489;BME280;7846;48.830;9.116;2023-03-15T10:17:37;97991.38;;;10.70;42.86
15489;BME280;7846;48.830;9.116;2023-03-15T10:20:12;97987.34;;;10.40;43.59
15489;BME280;7846;48.830;9.116;2023-03-15T10:22:52;97977.81;;;10.83;43.30
15489;BME280;7846;48.830;9.116;2023-03-15T10:28:11;97992.38;;;10.33;44.28
15489;BME280;7846;48.830;9.116;2023-03-15T10:30:39;97989.53;;;10.27;43.77
15489;BME280;7846;48.830;9.116;2023-03-15T10:35:51;97975.97;;;11.44;42.87
15489;BME280;7846;48.830;9.116;2023-03-15T10:38:21;97975.84;;;11.19;42.42
15489;BME280;7846;48.830;9.116;2023-03-15T10:40:58;97980.78;;;11.14;42.71
15489;BME280;7846;48.830;9.116;2023-03-15T10:45:59;97980.44;;;11.51;42.93
15489;BME280;7846;48.830;9.116;2023-03-15T10:48:26;97978.91;;;11.41;42.70
15489;BME280;7846;48.830;9.116;2023-03-15T10:50:54;97986.88;;;12.07;41.68
15489;BME280;7846;48.830;9.116;2023-03-15T10:53:19;97979.06;;;11.81;42.09
15489;BME280;7846;48.830;9.116;2023-03-15T10:55:47;97980.16;;;11.62;42.13
15489;BME280;7846;48.830;9.116;2023-03-15T10:58:23;97984.66;;;11.78;42.39
15489;BME280;7846;48.830;9.116;2023-03-15T11:01:03;97984.28;;;11.57;43.52
15489;BME280;7846;48.830;9.116;2023-03-15T11:03:32;97987.94;;;11.30;43.60
15489;BME280;7846;48.830;9.116;2023-03-15T11:05:58;97988.34;;;11.09;43.41
15489;BME280;7846;48.830;9.116;2023-03-15T11:08:35;97988.69;;;10.88;42.61
15489;BME280;7846;48.830;9.116;2023-03-15T11:11:02;97978.38;;;10.95;42.78
15489;BME280;7846;48.830;9.116;2023-03-15T11:13:29;97982.81;;;11.71;42.45
15489;BME280;7846;48.830;9.116;2023-03-15T11:16:07;97981.31;;;11.26;42.25
15489;BME280;7846;48.830;9.116;2023-03-15T11:18:45;97978.31;;;10.86;42.03
15489;BME280;7846;48.830;9.116;2023-03-15T11:21:14;97977.03;;;10.90;40.62
15489;BME280;7846;48.830;9.116;2023-03-15T11:23:47;97984.28;;;10.71;41.21
15489;BME280;7846;48.830;9.116;2023-03-15T11:26:17;97977.94;;;10.81;42.26
15489;BME280;7846;48.830;9.116;2023-03-15T11:28:47;97984.03;;;10.56;41.18
15489;BME280;7846;48.830;9.116;2023-03-15T11:31:14;97984.69;;;10.22;41.19
15489;BME280;7846;48.830;9.116;2023-03-15T11:33:49;97979.97;;;10.61;41.59
15489;BME280;7846;48.830;9.116;2023-03-15T11:36:19;97977.44;;;10.34;41.62
15489;BME280;7846;48.830;9.116;2023-03-15T11:38:47;97984.66;;;10.32;42.56
15489;BME280;7846;48.830;9.116;2023-03-15T11:41:24;97983.13;;;10.47;42.27
15489;BME280;7846;48.830;9.116;2023-03-15T11:44:12;97977.38;;;10.70;42.06
15489;BME280;7846;48.830;9.116;2023-03-15T11:46:45;97973.88;;;10.61;42.74
15489;BME280;7846;48.830;9.116;2023-03-15T11:49:45;97982.31;;;10.90;42.54
15489;BME280;7846;48.830;9.116;2023-03-15T11:52:15;97988.34;;;10.39;42.49
15489;BME280;7846;48.830;9.116;2023-03-15T11:54:42;97977.50;;;10.24;43.93
15489;BME280;7846;48.830;9.116;2023-03-15T11:59:53;97988.47;;;10.37;43.61
15489;BME280;7846;48.830;9.116;2023-03-15T12:04:49;97995.09;;;10.41;43.46
15489;BME280;7846;48.830;9.116;2023-03-15T12:09:53;97978.91;;;10.54;44.41
15489;BME280;7846;48.830;9.116;2023-03-15T12:17:56;97986.22;;;10.86;45.25
15489;BME280;7846;48.830;9.116;2023-03-15T12:20:33;97982.97;;;10.93;44.92
15489;BME280;7846;48.830;9.116;2023-03-15T12:23:16;97987.88;;;10.87;44.97
15489;BME280;7846;48.830;9.116;2023-03-15T12:28:37;97993.50;;;10.49;44.81
15489;BME280;7846;48.830;9.116;2023-03-15T12:31:09;97991.41;;;10.16;46.46
15489;BME280;7846;48.830;9.116;2023-03-15T12:33:51;97990.72;;;10.68;46.81
15489;BME280;7846;48.830;9.116;2023-03-15T12:36:30;97992.13;;;10.62;46.66
15489;BME280;7846;48.830;9.116;2023-03-15T12:41:42;98005.13;;;9.92;51.73
15489;BME280;7846;48.830;9.116;2023-03-15T12:44:25;97997.63;;;9.98;51.67
15489;BME280;7846;48.830;9.116;2023-03-15T12:52:03;98005.75;;;9.59;54.71
15489;BME280;7846;48.830;9.116;2023-03-15T12:54:46;98027.56;;;9.32;56.08
15489;BME280;7846;48.830;9.116;2023-03-15T12:57:18;98014.22;;;8.59;58.47
15489;BME280;7846;48.830;9.116;2023-03-15T12:59:59;98020.47;;;9.05;58.86
15489;BME280;7846;48.830;9.116;2023-03-15T13:02:32;98022.03;;;8.88;59.33
15489;BME280;7846;48.830;9.116;2023-03-15T13:05:02;98031.44;;;8.32;60.70
15489;BME280;7846;48.830;9.116;2023-03-15T13:07:53;98017.41;;;8.43;62.47
15489;BME280;7846;48.830;9.116;2023-03-15T13:10:36;98019.84;;;8.83;63.60
15489;BME280;7846;48.830;9.116;2023-03-15T13:16:00;98009.91;;;9.24;61.76
15489;BME280;7846;48.830;9.116;2023-03-15T13:18:33;98014.13;;;9.72;62.26
15489;BME280;7846;48.830;9.116;2023-03-15T13:21:14;98008.94;;;9.53;61.40
15489;BME280;7846;48.830;9.116;2023-03-15T13:23:48;98012.16;;;9.74;60.76
15489;BME280;7846;48.830;9.116;2023-03-15T13:26:33;98016.72;;;9.44;60.04
15489;BME280;7846;48.830;9.116;2023-03-15T13:29:09;98015.31;;;9.78;59.27
15489;BME280;7846;48.830;9.116;2023-03-15T13:31:36;98020.06;;;9.47;59.39
15489;BME280;7846;48.830;9.116;2023-03-15T13:34:18;98022.25;;;9.97;58.08
15489;BME280;7846;48.830;9.116;2023-03-15T13:36:47;98018.97;;;9.39;57.60
15489;BME280;7846;48.830;9.116;2023-03-15T13:39:19;98018.97;;;9.39;56.99
15489;BME280;7846;48.830;9.116;2023-03-15T13:41:47;98031.50;;;9.18;57.34
15489;BME280;7846;48.830;9.116;2023-03-15T13:44:23;98022.81;;;9.08;58.39
15489;BME280;7846;48.830;9.116;2023-03-15T13:46:50;98029.41;;;8.65;59.22
15489;BME280;7846;48.830;9.116;2023-03-15T13:49:17;98051.97;;;8.08;60.35
15489;BME280;7846;48.830;9.116;2023-03-15T13:51:46;98035.38;;;7.78;62.79
15489;BME280;7846;48.830;9.116;2023-03-15T13:54:22;98032.09;;;7.95;63.39
15489;BME280;7846;48.830;9.116;2023-03-15T13:56:58;98041.09;;;7.52;66.02
15489;BME280;7846;48.830;9.116;2023-03-15T13:59:37;98036.31;;;7.67;67.22
15489;BME280;7846;48.830;9.116;2023-03-15T14:02:04;98023.09;;;7.69;67.19
15489;BME280;7846;48.830;9.116;2023-03-15T14:04:34;98028.31;;;8.38;66.78
15489;BME280;7846;48.830;9.116;2023-03-15T14:07:25;98023.88;;;9.25;65.46
15489;BME280;7846;48.830;9.116;2023-03-15T14:10:22;98028.03;;;9.55;62.84
15489;BME280;7846;48.830;9.116;2023-03-15T14:12:48;98024.75;;;11.13;62.15
15489;BME280;7846;48.830;9.116;2023-03-15T14:15:24;98021.56;;;12.78;57.98
15489;BME280;7846;48.830;9.116;2023-03-15T14:20:51;98013.59;;;13.11;53.48